Archival Weather

Chicago O'Hare International

Chicago, Illinois (KORD)

Report from: Sunday, March 6, 2022 11:30 PM CST
Current time: Saturday, February 4, 2023 10:21 PM CST

Current weather
Weather history
Weather forecast

Present weatherRASN
Temperature2.8°C (37.0°F)
Wind chill-1.2°C (29.8°F)
Dew point-1.1°C (30.0°F)
Winds 9 kts (4.6 m/s, 10.4 mph) North-Northeast (20°)
Visibility6 mi. (9.7 km)
Clouds Ceiling: Broken clouds 2,500 ft. (762 m)
Overcast 3,900 ft. (1,189 m)
Altimeter29.97 in.Hg (1015 mB)
PrecipitiationTrace
Precip. events Rain began 11:14 PM
Snow began 11:14 PM
Relative humidity75 %
Density altitude-1,452 ft. (-442 m)
Remarks System requires maintenance
Automated weather observing station with precipitation discriminator
Flight conditions Marginal Visual Meteorological Conditions
Raw dataKORD 070530Z 02009KT 6SM -RASN BKN025 OVC039 03/M01 A2997 RMK AO2 RAB14SNB14 P0000 T00281011 $
An unhandled exception has occurred. See browser dev tools for details. Reload 🗙